createdAt,value
2022-12-31T00:01:40.851Z,99678.00
2022-12-31T00:04:08.505Z,99684.00
2022-12-31T00:06:37.259Z,99677.00
2022-12-31T00:09:07.588Z,99676.00
2022-12-31T00:11:36.198Z,99688.00
2022-12-31T00:14:05.748Z,99688.00
2022-12-31T00:16:36.413Z,99681.00
2022-12-31T00:19:05.671Z,99665.00
2022-12-31T00:21:34.671Z,99671.00
2022-12-31T00:24:03.315Z,99670.00
2022-12-31T00:26:33.251Z,99681.00
2022-12-31T00:29:02.191Z,99685.00
2022-12-31T00:31:33.069Z,99678.00
2022-12-31T00:34:01.035Z,99677.00
2022-12-31T00:36:30.920Z,99682.00
2022-12-31T00:38:59.948Z,99671.00
2022-12-31T00:41:28.693Z,99677.00
2022-12-31T00:43:56.858Z,99687.00
2022-12-31T00:46:25.149Z,99693.00
2022-12-31T00:48:54.668Z,99676.00
2022-12-31T00:51:27.242Z,99687.00
2022-12-31T00:53:55.271Z,99699.00
2022-12-31T00:56:25.390Z,99697.00
2022-12-31T00:58:53.394Z,99688.00
2022-12-31T01:01:23.175Z,99683.00
2022-12-31T01:03:52.860Z,99710.00
2022-12-31T01:06:22.839Z,99688.00
2022-12-31T01:08:51.369Z,99678.00
2022-12-31T01:11:22.093Z,99683.00
2022-12-31T01:13:52.403Z,99694.00
2022-12-31T01:16:22.350Z,99693.00
2022-12-31T01:18:50.478Z,99696.00
2022-12-31T01:21:19.632Z,99716.00
2022-12-31T01:23:48.768Z,99704.00
2022-12-31T01:26:17.934Z,99709.00
2022-12-31T01:28:46.099Z,99716.00
2022-12-31T01:31:15.388Z,99717.00
2022-12-31T01:33:43.306Z,99717.00
2022-12-31T01:36:13.660Z,99703.00
2022-12-31T01:38:42.066Z,99714.00
2022-12-31T01:41:13.121Z,99711.00
2022-12-31T01:43:48.092Z,99714.00
2022-12-31T01:46:21.838Z,99721.00
2022-12-31T01:48:54.515Z,99715.00
2022-12-31T01:51:22.870Z,99712.00
2022-12-31T01:53:51.461Z,99713.00
2022-12-31T01:56:23.239Z,99712.00
2022-12-31T01:58:54.025Z,99711.00
2022-12-31T02:01:25.480Z,99715.00
2022-12-31T02:03:53.573Z,99699.00
2022-12-31T02:06:23.792Z,99706.00
2022-12-31T02:08:52.391Z,99710.00
2022-12-31T02:11:25.608Z,99707.00
2022-12-31T02:13:58.376Z,99694.00
2022-12-31T02:16:33.842Z,99688.00
2022-12-31T02:19:18.378Z,99694.00
2022-12-31T02:21:52.819Z,99690.00
2022-12-31T02:25:15.782Z,99674.00
2022-12-31T02:27:58.983Z,99681.00
2022-12-31T02:30:32.729Z,99685.00
2022-12-31T02:33:12.310Z,99668.00
2022-12-31T02:35:48.245Z,99667.00
2022-12-31T02:38:20.354Z,99660.00
2022-12-31T02:40:48.346Z,99651.00
2022-12-31T02:43:16.165Z,99665.00
2022-12-31T02:45:48.656Z,99654.00
2022-12-31T02:48:29.653Z,99654.00
2022-12-31T02:51:07.997Z,99655.00
2022-12-31T02:53:57.621Z,99658.00
2022-12-31T02:56:32.002Z,99648.00
2022-12-31T02:59:26.426Z,99665.00
2022-12-31T03:02:22.079Z,99672.00
2022-12-31T03:04:53.117Z,99652.00
2022-12-31T03:07:23.058Z,99652.00
2022-12-31T03:09:51.165Z,99649.00
2022-12-31T03:12:39.279Z,99652.00
2022-12-31T03:15:19.811Z,99650.00
2022-12-31T03:17:55.012Z,99633.00
2022-12-31T03:20:42.826Z,99634.00
2022-12-31T03:23:13.919Z,99634.00
2022-12-31T03:25:40.650Z,99638.00
2022-12-31T03:28:10.939Z,99650.00
2022-12-31T03:30:40.348Z,99650.00
2022-12-31T03:33:09.839Z,99634.00
2022-12-31T03:35:38.995Z,99630.00
2022-12-31T03:38:06.763Z,99646.00
2022-12-31T03:40:37.931Z,99632.00
2022-12-31T03:43:05.591Z,99620.00
2022-12-31T03:45:34.251Z,99637.00
2022-12-31T03:48:02.055Z,99629.00
2022-12-31T03:50:31.226Z,99630.00
2022-12-31T03:52:58.977Z,99625.00
2022-12-31T03:55:26.883Z,99616.00
2022-12-31T03:57:54.639Z,99611.00
2022-12-31T04:00:23.458Z,99608.00
2022-12-31T04:02:51.598Z,99607.00
2022-12-31T04:05:20.336Z,99600.00
2022-12-31T04:07:49.643Z,99600.00
2022-12-31T04:10:18.900Z,99587.00
2022-12-31T04:12:46.929Z,99568.00
2022-12-31T04:15:18.037Z,99562.00
2022-12-31T04:17:46.116Z,99551.00
2022-12-31T04:20:13.840Z,99555.00
2022-12-31T04:22:41.554Z,99542.00
2022-12-31T04:25:11.836Z,99542.00
2022-12-31T04:27:40.812Z,99529.00
2022-12-31T04:30:10.159Z,99527.00
2022-12-31T04:32:37.945Z,99535.00
2022-12-31T04:35:06.428Z,99533.00
2022-12-31T04:37:34.115Z,99535.00
2022-12-31T04:40:05.859Z,99537.00
2022-12-31T04:42:35.601Z,99531.00
2022-12-31T04:45:03.304Z,99540.00
2022-12-31T04:47:31.115Z,99541.00
2022-12-31T04:49:58.754Z,99549.00
2022-12-31T04:52:26.452Z,99557.00
2022-12-31T04:54:54.088Z,99561.00
2022-12-31T04:57:21.828Z,99567.00
2022-12-31T04:59:50.836Z,99592.00
2022-12-31T05:02:18.685Z,99597.00
2022-12-31T05:04:46.543Z,99621.00
2022-12-31T05:07:14.183Z,99620.00
2022-12-31T05:09:41.885Z,99633.00
2022-12-31T05:12:09.595Z,99642.00
2022-12-31T05:14:37.260Z,99629.00
2022-12-31T05:17:06.246Z,99639.00
2022-12-31T05:19:33.871Z,99628.00
2022-12-31T05:22:19.299Z,99624.00
2022-12-31T05:24:46.980Z,99615.00
2022-12-31T05:27:14.629Z,99609.00
2022-12-31T05:29:42.289Z,99622.00
2022-12-31T05:32:11.304Z,99626.00
2022-12-31T05:34:39.029Z,99627.00
2022-12-31T05:37:06.707Z,99638.00
2022-12-31T05:39:34.320Z,99637.00
2022-12-31T05:42:02.031Z,99665.00
2022-12-31T05:44:29.710Z,99670.00
2022-12-31T05:46:57.376Z,99660.00
2022-12-31T05:49:26.362Z,99666.00
2022-12-31T05:51:54.009Z,99670.00
2022-12-31T05:54:21.843Z,99677.00
2022-12-31T05:56:49.562Z,99677.00
2022-12-31T05:59:17.339Z,99673.00
2022-12-31T06:01:45.133Z,99698.00
2022-12-31T06:04:12.794Z,99686.00
2022-12-31T06:06:41.833Z,99693.00
2022-12-31T06:09:09.570Z,99683.00
2022-12-31T06:11:37.308Z,99678.00
2022-12-31T06:14:05.030Z,99671.00
2022-12-31T06:16:32.677Z,99683.00
2022-12-31T06:19:00.377Z,99656.00
2022-12-31T06:21:28.353Z,99668.00
2022-12-31T06:23:58.621Z,99657.00
2022-12-31T06:26:27.041Z,99673.00
2022-12-31T06:28:55.132Z,99679.00
2022-12-31T06:31:22.820Z,99675.00
2022-12-31T06:33:50.499Z,99659.00
2022-12-31T06:36:19.087Z,99669.00
2022-12-31T06:38:46.703Z,99657.00
2022-12-31T06:41:18.322Z,99659.00
2022-12-31T06:43:46.681Z,99666.00
2022-12-31T06:46:15.970Z,99670.00
2022-12-31T06:48:44.832Z,99673.00
2022-12-31T06:51:17.222Z,99680.00
2022-12-31T06:53:46.017Z,99685.00
2022-12-31T06:56:18.461Z,99680.00
2022-12-31T06:58:47.053Z,99677.00
2022-12-31T07:01:42.275Z,99679.00
2022-12-31T07:04:36.030Z,99680.00
2022-12-31T07:07:09.230Z,99694.00
2022-12-31T07:09:43.358Z,99675.00
2022-12-31T07:12:19.769Z,99693.00
2022-12-31T07:14:53.667Z,99708.00
2022-12-31T07:17:33.102Z,99678.00
2022-12-31T07:20:05.830Z,99697.00
2022-12-31T07:22:34.292Z,99691.00
2022-12-31T07:25:02.739Z,99685.00
2022-12-31T07:27:49.763Z,99702.00
2022-12-31T07:30:20.667Z,99662.00
2022-12-31T07:33:10.010Z,99678.00
2022-12-31T07:35:49.544Z,99708.00
2022-12-31T07:38:27.842Z,99700.00
2022-12-31T07:41:09.748Z,99709.00
2022-12-31T07:43:50.391Z,99707.00
2022-12-31T07:46:25.007Z,99703.00
2022-12-31T07:48:53.267Z,99714.00
2022-12-31T07:51:21.716Z,99731.00
2022-12-31T07:53:49.378Z,99721.00
2022-12-31T07:56:17.041Z,99747.00
2022-12-31T07:59:02.411Z,99740.00
2022-12-31T08:01:40.728Z,99756.00
2022-12-31T08:04:12.351Z,99760.00
2022-12-31T08:06:47.762Z,99752.00
2022-12-31T08:09:30.646Z,99751.00
2022-12-31T08:12:00.290Z,99754.00
2022-12-31T08:14:30.743Z,99764.00
2022-12-31T08:16:59.096Z,99757.00
2022-12-31T08:19:30.398Z,99765.00
2022-12-31T08:22:15.399Z,99783.00
2022-12-31T08:24:52.729Z,99780.00
2022-12-31T08:27:29.060Z,99788.00
2022-12-31T08:30:06.347Z,99797.00
2022-12-31T08:32:40.333Z,99796.00
2022-12-31T08:35:19.695Z,99794.00
2022-12-31T08:37:54.209Z,99785.00
2022-12-31T08:40:29.457Z,99780.00
2022-12-31T08:43:12.803Z,99778.00
2022-12-31T08:45:47.439Z,99783.00
2022-12-31T08:48:26.143Z,99790.00
2022-12-31T08:50:54.473Z,99776.00
2022-12-31T08:53:22.604Z,99786.00
2022-12-31T08:55:53.032Z,99780.00
2022-12-31T08:58:35.424Z,99779.00
2022-12-31T09:01:07.405Z,99777.00
2022-12-31T09:03:54.056Z,99780.00
2022-12-31T09:06:29.426Z,99774.00
2022-12-31T09:09:04.114Z,99772.00
2022-12-31T09:11:44.223Z,99771.00
2022-12-31T09:14:27.195Z,99767.00
2022-12-31T09:17:03.136Z,99767.00
2022-12-31T09:19:30.878Z,99769.00
2022-12-31T09:21:59.099Z,99766.00
2022-12-31T09:24:27.364Z,99772.00
2022-12-31T09:27:05.957Z,99761.00
2022-12-31T09:29:45.835Z,99768.00
2022-12-31T09:32:25.168Z,99770.00
2022-12-31T09:34:58.195Z,99771.00
2022-12-31T09:37:39.658Z,99760.00
2022-12-31T09:40:38.512Z,99772.00
2022-12-31T09:43:59.019Z,99769.00
2022-12-31T09:47:12.311Z,99772.00
2022-12-31T09:50:16.209Z,99760.00
2022-12-31T09:52:53.360Z,99762.00
2022-12-31T09:55:37.981Z,99757.00
2022-12-31T09:58:24.737Z,99755.00
2022-12-31T10:00:57.235Z,99763.00
2022-12-31T10:03:43.462Z,99740.00
2022-12-31T10:06:27.900Z,99754.00
2022-12-31T10:09:14.083Z,99753.00
2022-12-31T10:12:00.453Z,99747.00
2022-12-31T10:14:47.360Z,99741.00
2022-12-31T10:17:28.898Z,99738.00
2022-12-31T10:20:17.922Z,99735.00
2022-12-31T10:23:08.715Z,99740.00
2022-12-31T10:26:01.908Z,99730.00
2022-12-31T10:28:38.998Z,99734.00
2022-12-31T10:31:16.096Z,99728.00
2022-12-31T10:33:46.676Z,99724.00
2022-12-31T10:36:21.743Z,99723.00
2022-12-31T10:39:16.450Z,99732.00
2022-12-31T10:42:03.129Z,99737.00
2022-12-31T10:45:03.869Z,99725.00
2022-12-31T10:48:14.569Z,99750.00
2022-12-31T10:51:06.357Z,99732.00
2022-12-31T10:54:18.816Z,99747.00
2022-12-31T10:57:26.198Z,99728.00
2022-12-31T11:00:11.930Z,99733.00
2022-12-31T11:03:05.471Z,99739.00
2022-12-31T11:05:55.886Z,99739.00
2022-12-31T11:08:54.574Z,99743.00
2022-12-31T11:11:34.876Z,99745.00
2022-12-31T11:14:32.253Z,99735.00
2022-12-31T11:17:17.158Z,99760.00
2022-12-31T11:19:56.192Z,99750.00
2022-12-31T11:22:41.693Z,99775.00
2022-12-31T11:25:23.833Z,99780.00
2022-12-31T11:28:15.001Z,99776.00
2022-12-31T11:31:00.465Z,99791.00
2022-12-31T11:33:50.192Z,99795.00
2022-12-31T11:36:25.503Z,99832.00
2022-12-31T11:38:58.838Z,99831.00
2022-12-31T11:41:32.062Z,99882.00
2022-12-31T11:44:12.906Z,99866.00
2022-12-31T11:47:09.187Z,99864.00
2022-12-31T11:49:52.560Z,99879.00
2022-12-31T11:52:52.652Z,99884.00
2022-12-31T11:55:31.213Z,99870.00
2022-12-31T11:58:03.012Z,99870.00
2022-12-31T12:00:33.208Z,99866.00
2022-12-31T12:03:04.492Z,99863.00
2022-12-31T12:05:33.078Z,99855.00
2022-12-31T12:08:00.772Z,99859.00
2022-12-31T12:10:36.210Z,99846.00
2022-12-31T12:13:13.576Z,99850.00
2022-12-31T12:15:45.460Z,99846.00
2022-12-31T12:18:28.980Z,99852.00
2022-12-31T12:21:04.687Z,99853.00
2022-12-31T12:23:32.845Z,99854.00
2022-12-31T12:26:00.677Z,99856.00
2022-12-31T12:28:31.034Z,99844.00
2022-12-31T12:31:01.960Z,99851.00
2022-12-31T12:33:42.593Z,99849.00
2022-12-31T12:36:12.552Z,99850.00
2022-12-31T12:38:40.853Z,99847.00
2022-12-31T12:41:12.352Z,99857.00
2022-12-31T12:43:40.044Z,99851.00
2022-12-31T12:46:19.221Z,99852.00
2022-12-31T12:48:50.402Z,99863.00
2022-12-31T12:51:37.744Z,99860.00
2022-12-31T12:54:15.588Z,99855.00
2022-12-31T12:56:50.377Z,99851.00
2022-12-31T12:59:49.018Z,99857.00
2022-12-31T13:02:30.792Z,99854.00
2022-12-31T13:05:11.890Z,99865.00
2022-12-31T13:07:53.198Z,99863.00
2022-12-31T13:10:44.196Z,99861.00
2022-12-31T13:13:24.633Z,99871.00
2022-12-31T13:16:00.848Z,99866.00
2022-12-31T13:18:49.288Z,99884.00
2022-12-31T13:21:33.465Z,99879.00
2022-12-31T13:24:11.069Z,99858.00
2022-12-31T13:26:46.185Z,99872.00
2022-12-31T13:29:20.727Z,99869.00
2022-12-31T13:31:50.676Z,99866.00
2022-12-31T13:34:21.990Z,99869.00
2022-12-31T13:36:53.815Z,99875.00
2022-12-31T13:39:26.772Z,99864.00
2022-12-31T13:41:59.841Z,99865.00
2022-12-31T13:44:32.995Z,99851.00
2022-12-31T13:47:05.292Z,99853.00
2022-12-31T13:49:38.191Z,99861.00
2022-12-31T13:52:22.665Z,99864.00
2022-12-31T13:54:56.991Z,99866.00
2022-12-31T13:57:34.792Z,99864.00
2022-12-31T14:00:06.468Z,99855.00
2022-12-31T14:02:40.227Z,99867.00
2022-12-31T14:05:17.413Z,99867.00
2022-12-31T14:07:52.438Z,99871.00
2022-12-31T14:10:29.478Z,99868.00
2022-12-31T14:13:07.272Z,99886.00
2022-12-31T14:15:42.550Z,99894.00
2022-12-31T14:18:16.552Z,99879.00
2022-12-31T14:20:49.075Z,99873.00
2022-12-31T14:23:31.399Z,99887.00
2022-12-31T14:26:01.983Z,99873.00
2022-12-31T14:28:34.299Z,99869.00
2022-12-31T14:31:22.980Z,99869.00
2022-12-31T14:33:57.278Z,99880.00
2022-12-31T14:36:34.289Z,99867.00
2022-12-31T14:39:28.606Z,99874.00
2022-12-31T14:42:08.432Z,99885.00
2022-12-31T14:44:49.896Z,99869.00
2022-12-31T14:47:31.728Z,99881.00
2022-12-31T14:50:07.573Z,99885.00
2022-12-31T14:52:47.824Z,99893.00
2022-12-31T14:55:26.713Z,99902.00
2022-12-31T14:58:26.316Z,99902.00
2022-12-31T15:00:54.613Z,99903.00
2022-12-31T15:03:33.489Z,99923.00
2022-12-31T15:06:13.988Z,99923.00
2022-12-31T15:08:53.907Z,99932.00
2022-12-31T15:11:51.601Z,99944.00
2022-12-31T15:14:57.835Z,99930.00
2022-12-31T15:17:37.900Z,99943.00
2022-12-31T15:20:23.019Z,99943.00
2022-12-31T15:22:52.425Z,99961.00
2022-12-31T15:25:28.543Z,99942.00
2022-12-31T15:27:59.766Z,99951.00
2022-12-31T15:30:39.238Z,99944.00
2022-12-31T15:33:16.659Z,99951.00
2022-12-31T15:35:51.434Z,99943.00
2022-12-31T15:38:30.858Z,99956.00
2022-12-31T15:40:59.026Z,99978.00
2022-12-31T15:43:36.567Z,99970.00
2022-12-31T15:46:15.461Z,99962.00
2022-12-31T15:48:52.099Z,99985.00
2022-12-31T15:51:23.771Z,99977.00
2022-12-31T15:53:54.142Z,99952.00
2022-12-31T15:56:29.283Z,99955.00
2022-12-31T15:59:00.851Z,99965.00
2022-12-31T16:01:31.528Z,99947.00
2022-12-31T16:04:02.661Z,99944.00
2022-12-31T16:06:32.301Z,99956.00
2022-12-31T16:09:00.200Z,99947.00
2022-12-31T16:11:30.314Z,99958.00
2022-12-31T16:13:59.977Z,99965.00
2022-12-31T16:16:29.934Z,99970.00
2022-12-31T16:18:59.237Z,99968.00
2022-12-31T16:21:33.600Z,99968.00
2022-12-31T16:24:04.547Z,99981.00
2022-12-31T16:26:38.027Z,99976.00
2022-12-31T16:29:07.172Z,99978.00
2022-12-31T16:31:34.886Z,99974.00
2022-12-31T16:34:07.634Z,99994.00
2022-12-31T16:36:35.542Z,99988.00
2022-12-31T16:39:26.161Z,99990.00
2022-12-31T16:42:00.581Z,99988.00
2022-12-31T16:44:30.987Z,99988.00
2022-12-31T16:47:01.223Z,99993.00
2022-12-31T16:49:31.349Z,99995.00
2022-12-31T16:52:03.600Z,99997.00
2022-12-31T16:54:35.563Z,99998.00
2022-12-31T16:57:04.627Z,100000.00
2022-12-31T16:59:36.584Z,99983.00
2022-12-31T17:02:11.326Z,99998.00
2022-12-31T17:04:45.205Z,99991.00
2022-12-31T17:07:40.001Z,99998.00
2022-12-31T17:10:19.338Z,99996.00
2022-12-31T17:15:43.132Z,99997.00
2022-12-31T17:18:17.506Z,99985.00
2022-12-31T17:20:45.489Z,99990.00
2022-12-31T17:23:23.727Z,100006.00
2022-12-31T17:25:58.903Z,100002.00
2022-12-31T17:28:27.772Z,99991.00
2022-12-31T17:31:00.619Z,99998.00
2022-12-31T17:33:32.471Z,99994.00
2022-12-31T17:36:23.217Z,99991.00
2022-12-31T17:38:51.479Z,99987.00
2022-12-31T17:41:25.667Z,99978.00
2022-12-31T17:43:55.970Z,99988.00
2022-12-31T17:46:26.529Z,99978.00
2022-12-31T17:48:58.881Z,99992.00
2022-12-31T17:51:26.624Z,99999.00
2022-12-31T17:53:54.312Z,99996.00
2022-12-31T17:56:22.228Z,99983.00
2022-12-31T17:58:51.924Z,99983.00
2022-12-31T18:01:21.846Z,99991.00
2022-12-31T18:03:51.053Z,99975.00
2022-12-31T18:06:19.963Z,99969.00
2022-12-31T18:08:47.749Z,99965.00
2022-12-31T18:11:18.352Z,99967.00
2022-12-31T18:13:46.807Z,99956.00
2022-12-31T18:16:14.831Z,99951.00
2022-12-31T18:18:43.728Z,99955.00
2022-12-31T18:21:18.878Z,99958.00
2022-12-31T18:23:48.681Z,99955.00
2022-12-31T18:26:17.912Z,99948.00
2022-12-31T18:28:46.101Z,99944.00
2022-12-31T18:31:15.648Z,99939.00
2022-12-31T18:33:43.395Z,99932.00
2022-12-31T18:36:15.387Z,99925.00
2022-12-31T18:38:43.262Z,99936.00
2022-12-31T18:41:17.778Z,99932.00
2022-12-31T18:43:45.524Z,99938.00
2022-12-31T18:46:14.594Z,99922.00
2022-12-31T18:48:43.260Z,99940.00
2022-12-31T18:51:16.043Z,99930.00
2022-12-31T18:53:43.766Z,99925.00
2022-12-31T18:56:13.734Z,99929.00
2022-12-31T18:58:42.017Z,99918.00
2022-12-31T19:01:25.898Z,99920.00
2022-12-31T19:03:54.249Z,99928.00
2022-12-31T19:06:23.608Z,99925.00
2022-12-31T19:08:51.332Z,99933.00
2022-12-31T19:11:19.409Z,99927.00
2022-12-31T19:13:47.830Z,99924.00
2022-12-31T19:16:15.570Z,99946.00
2022-12-31T19:18:43.498Z,99940.00
2022-12-31T19:21:17.717Z,99937.00
2022-12-31T19:23:47.388Z,99926.00
2022-12-31T19:26:16.572Z,99923.00
2022-12-31T19:28:44.911Z,99926.00
2022-12-31T19:31:12.930Z,99947.00
2022-12-31T19:33:40.731Z,99939.00
2022-12-31T19:36:15.476Z,99950.00
2022-12-31T19:38:43.212Z,99959.00
2022-12-31T19:41:17.009Z,99948.00
2022-12-31T19:43:45.037Z,99951.00
2022-12-31T19:46:14.536Z,99946.00
2022-12-31T19:48:42.771Z,99950.00
2022-12-31T19:51:11.848Z,99962.00
2022-12-31T19:53:40.292Z,99962.00
2022-12-31T19:56:13.281Z,99968.00
2022-12-31T19:58:42.392Z,99957.00
2022-12-31T20:01:18.087Z,99959.00
2022-12-31T20:03:45.838Z,99968.00
2022-12-31T20:06:13.555Z,99959.00
2022-12-31T20:08:43.300Z,99952.00
2022-12-31T20:11:12.939Z,99965.00
2022-12-31T20:13:43.384Z,99969.00
2022-12-31T20:16:13.313Z,99968.00
2022-12-31T20:18:43.088Z,99973.00
2022-12-31T20:21:11.890Z,99970.00
2022-12-31T20:23:40.511Z,99974.00
2022-12-31T20:26:08.275Z,99970.00
2022-12-31T20:28:36.710Z,99976.00
2022-12-31T20:31:08.331Z,99990.00
2022-12-31T20:33:36.270Z,99982.00
2022-12-31T20:36:04.805Z,99975.00
2022-12-31T20:38:32.816Z,99980.00
2022-12-31T20:41:04.327Z,99996.00
2022-12-31T20:43:32.506Z,99998.00
2022-12-31T20:46:00.337Z,99992.00
2022-12-31T20:48:29.401Z,99992.00
2022-12-31T20:50:57.873Z,99999.00
2022-12-31T20:53:25.749Z,100004.00
2022-12-31T20:55:53.533Z,100004.00
2022-12-31T20:58:21.729Z,100003.00
2022-12-31T21:00:49.991Z,99998.00
2022-12-31T21:04:02.288Z,99993.00
2022-12-31T21:06:09.443Z,100016.00
2022-12-31T21:08:37.799Z,100012.00
2022-12-31T21:11:26.670Z,100017.00
2022-12-31T21:13:53.916Z,100015.00
2022-12-31T21:16:21.636Z,100014.00
2022-12-31T21:18:49.320Z,100012.00
2022-12-31T21:21:18.694Z,100027.00
2022-12-31T21:23:46.499Z,100019.00
2022-12-31T21:26:14.319Z,100037.00
2022-12-31T21:28:41.945Z,100015.00
2022-12-31T21:31:11.630Z,100021.00
2022-12-31T21:33:39.367Z,100026.00
2022-12-31T21:36:07.495Z,100031.00
2022-12-31T21:38:38.144Z,100029.00
2022-12-31T21:41:07.231Z,100014.00
2022-12-31T21:43:35.688Z,100039.00
2022-12-31T21:46:04.202Z,100046.00
2022-12-31T21:48:31.978Z,100045.00
2022-12-31T21:51:08.442Z,100043.00
2022-12-31T21:53:38.088Z,100036.00
2022-12-31T21:56:08.493Z,100042.00
2022-12-31T21:58:36.733Z,100033.00
2022-12-31T22:01:22.062Z,100056.00
2022-12-31T22:03:49.870Z,100057.00
2022-12-31T22:06:21.622Z,100056.00
2022-12-31T22:08:52.781Z,100049.00
2022-12-31T22:11:21.714Z,100050.00
2022-12-31T22:13:49.715Z,100057.00
2022-12-31T22:16:19.986Z,100050.00
2022-12-31T22:18:48.758Z,100052.00
2022-12-31T22:21:19.812Z,100033.00
2022-12-31T22:23:50.892Z,100059.00
2022-12-31T22:26:21.133Z,100049.00
2022-12-31T22:28:48.847Z,100061.00
2022-12-31T22:31:19.821Z,100052.00
2022-12-31T22:33:47.849Z,100084.00
2022-12-31T22:36:17.756Z,100082.00
2022-12-31T22:38:46.157Z,100089.00
2022-12-31T22:41:17.065Z,100091.00
2022-12-31T22:43:46.858Z,100098.00
2022-12-31T22:46:16.433Z,100110.00
2022-12-31T22:48:44.417Z,100116.00
2022-12-31T22:51:13.776Z,100097.00
2022-12-31T22:53:43.302Z,100129.00
2022-12-31T22:56:13.003Z,100118.00
2022-12-31T22:58:42.237Z,100117.00
2022-12-31T23:01:18.099Z,100109.00
2022-12-31T23:03:46.956Z,100118.00
2022-12-31T23:06:15.341Z,100121.00
2022-12-31T23:09:03.160Z,100123.00
2022-12-31T23:11:29.971Z,100138.00
2022-12-31T23:14:16.801Z,100122.00
2022-12-31T23:17:31.286Z,100122.00
2022-12-31T23:20:07.478Z,100127.00
2022-12-31T23:22:52.927Z,100125.00
2022-12-31T23:25:20.684Z,100117.00
2022-12-31T23:27:48.372Z,100129.00
2022-12-31T23:30:17.533Z,100132.00
2022-12-31T23:32:45.200Z,100122.00
2022-12-31T23:35:13.855Z,100122.00
2022-12-31T23:37:41.561Z,100115.00
2022-12-31T23:40:13.317Z,100120.00
2022-12-31T23:42:44.992Z,100104.00
2022-12-31T23:45:12.725Z,100114.00
2022-12-31T23:47:41.728Z,100108.00
2022-12-31T23:50:09.904Z,100107.00
2022-12-31T23:52:37.609Z,100124.00
2022-12-31T23:55:05.992Z,100122.00
2022-12-31T23:57:33.671Z,100125.00
